Lahore, Pakistan
Current Conditions -  °F | °C
As of 7:25 PM on Thursday 23 Oct 2014 (Local Time) from OPLA Reporting Station
Haze Haze  
Wind Chill: 84°   Ceiling: Unl
Heat Index: 84°   Visibility: 3mi
Dew Point: 61°   Wind: 0mph
Humidity: 45%   Direction: NA
Pressure: 29.88"   Gusts: NA
Location:  31.56°N, 74.35°E
Report Text: OPLA 231425Z 00000KT 5000 HZ FEW100 29/16 Q1012
Loading
Personal Weather Stations






























Interactive Weather Map
Tropical Storm Tracking
New forecast layout! Learn more

10-Day Weather Forecast

Advertisements
Track Severe Weather on mobile